KCSQ/CSQ METAR and TAF weather

Enter ICAO airport designator
Station Type Date Time Source
KCSQ METAR 2018/10/16 21:15 UTC NOAA

KCSQ 162115Z AUTO 29014KT 10SM CLR 17/04 A3014 RMK AO2


Station Type Date Time Source
KCSQ Decoded METAR 2018/10/16 21:15 UTC NOAA

Creston, IA, United States (KCSQ) 41-01N 094-22W
Oct 16, 2018 - 05:15 PM EDT / 2018.10.16 2115 UTC
Wind: from the WNW (290 degrees) at 16 MPH (14 KT):0
Visibility: 10 mile(s):0
Sky conditions: clear
Temperature: 62 F (17 C)
Dew Point: 39 F (4 C)
Relative Humidity: 41%
Pressure (altimeter): 30.14 in. Hg (1020 hPa)
ob: KCSQ 162115Z AUTO 29014KT 10SM CLR 17/04 A3014 RMK AO2
cycle: 21

Station Type Date Time Source
KCSQ TAF UTC NOAA

Error!


Example: see airport list